createdAt,value
2023-01-08T00:00:43.524Z,13.65
2023-01-08T00:03:10.154Z,27.27
2023-01-08T00:05:36.690Z,13.18
2023-01-08T00:08:03.431Z,16.77
2023-01-08T00:10:29.917Z,14.18
2023-01-08T00:12:56.397Z,15.40
2023-01-08T00:15:22.982Z,19.83
2023-01-08T00:17:49.441Z,10.35
2023-01-08T00:20:15.989Z,20.20
2023-01-08T00:22:42.580Z,20.40
2023-01-08T00:25:09.128Z,21.38
2023-01-08T00:27:35.591Z,14.98
2023-01-08T00:30:02.282Z,16.08
2023-01-08T00:32:29.053Z,10.90
2023-01-08T00:34:56.327Z,16.60
2023-01-08T00:37:22.888Z,11.88
2023-01-08T00:39:49.380Z,27.80
2023-01-08T00:42:15.922Z,12.93
2023-01-08T00:44:42.422Z,20.05
2023-01-08T00:47:08.920Z,26.95
2023-01-08T00:49:35.409Z,17.90
2023-01-08T00:52:01.915Z,15.18
2023-01-08T00:54:28.385Z,15.80
2023-01-08T00:56:55.217Z,14.20
2023-01-08T00:59:21.671Z,16.95
2023-01-08T01:01:48.238Z,17.33
2023-01-08T01:04:15.183Z,14.20
2023-01-08T01:06:42.047Z,18.63
2023-01-08T01:09:08.702Z,13.23
2023-01-08T01:11:35.288Z,14.65
2023-01-08T01:14:01.861Z,18.05
2023-01-08T01:16:28.384Z,21.60
2023-01-08T01:18:55.487Z,20.42
2023-01-08T01:21:22.201Z,21.20
2023-01-08T01:23:48.713Z,27.85
2023-01-08T01:26:19.829Z,19.40
2023-01-08T01:28:50.730Z,21.45
2023-01-08T01:31:17.824Z,21.73
2023-01-08T01:33:44.826Z,19.30
2023-01-08T01:36:15.575Z,15.55
2023-01-08T01:38:46.033Z,19.05
2023-01-08T01:41:26.541Z,19.60
2023-01-08T01:43:53.857Z,18.08
2023-01-08T01:46:23.866Z,12.50
2023-01-08T01:48:52.191Z,19.33
2023-01-08T01:51:19.547Z,15.25
2023-01-08T01:53:46.201Z,16.55
2023-01-08T01:56:12.880Z,18.65
2023-01-08T01:58:39.353Z,16.58
2023-01-08T02:01:07.247Z,21.33
2023-01-08T02:03:35.389Z,22.23
2023-01-08T02:06:05.051Z,17.00
2023-01-08T02:08:40.532Z,19.35
2023-01-08T02:11:10.197Z,21.88
2023-01-08T02:13:40.884Z,18.98
2023-01-08T02:16:07.335Z,15.43
2023-01-08T02:18:36.688Z,12.93
2023-01-08T02:21:14.454Z,13.55
2023-01-08T02:23:43.940Z,8.25
2023-01-08T02:26:46.208Z,12.73
2023-01-08T02:29:17.982Z,11.07
2023-01-08T02:31:46.815Z,14.13
2023-01-08T02:34:13.415Z,10.75
2023-01-08T02:36:42.668Z,13.20
2023-01-08T02:39:16.610Z,8.68
2023-01-08T02:41:55.324Z,11.93
2023-01-08T02:44:33.695Z,12.82
2023-01-08T02:47:00.800Z,11.48
2023-01-08T02:49:30.588Z,9.70
2023-01-08T02:51:57.757Z,16.88
2023-01-08T02:54:27.139Z,14.10
2023-01-08T02:56:56.685Z,12.25
2023-01-08T02:59:24.552Z,15.50
2023-01-08T03:01:52.313Z,6.35
2023-01-08T03:04:20.163Z,6.75
2023-01-08T03:06:47.098Z,11.07
2023-01-08T03:09:14.422Z,11.82
2023-01-08T03:11:43.761Z,13.77
2023-01-08T03:14:12.377Z,11.57
2023-01-08T03:16:41.112Z,8.27
2023-01-08T03:19:09.808Z,15.95
2023-01-08T03:21:37.878Z,11.27
2023-01-08T03:24:04.964Z,9.45
2023-01-08T03:26:32.883Z,12.82
2023-01-08T03:28:59.576Z,11.32
2023-01-08T03:31:27.648Z,7.78
2023-01-08T03:33:54.564Z,8.85
2023-01-08T03:36:24.021Z,8.27
2023-01-08T03:38:56.514Z,5.75
2023-01-08T03:41:24.647Z,7.90
2023-01-08T03:43:51.108Z,6.35
2023-01-08T03:46:22.033Z,5.05
2023-01-08T03:48:49.575Z,7.97
2023-01-08T03:51:16.082Z,6.95
2023-01-08T03:53:42.624Z,11.40
2023-01-08T03:56:09.154Z,5.25
2023-01-08T03:58:35.620Z,4.80
2023-01-08T04:01:02.085Z,5.45
2023-01-08T04:03:28.567Z,6.53
2023-01-08T04:05:55.043Z,6.95
2023-01-08T04:08:21.543Z,8.68
2023-01-08T04:10:48.001Z,10.25
2023-01-08T04:13:14.481Z,6.97
2023-01-08T04:15:41.322Z,6.78
2023-01-08T04:18:07.806Z,6.63
2023-01-08T04:20:34.294Z,9.85
2023-01-08T04:23:00.796Z,4.97
2023-01-08T04:25:27.252Z,12.15
2023-01-08T04:27:53.709Z,15.05
2023-01-08T04:30:20.213Z,11.02
2023-01-08T04:32:46.676Z,8.30
2023-01-08T04:35:13.140Z,13.38
2023-01-08T04:37:39.655Z,10.55
2023-01-08T04:40:06.434Z,11.82
2023-01-08T04:42:32.927Z,8.73
2023-01-08T04:44:59.429Z,10.23
2023-01-08T04:47:25.894Z,7.30
2023-01-08T04:49:52.357Z,9.23
2023-01-08T04:52:18.824Z,10.27
2023-01-08T04:54:45.275Z,16.95
2023-01-08T04:57:12.013Z,9.40
2023-01-08T04:59:38.655Z,13.40
2023-01-08T05:02:05.223Z,13.85
2023-01-08T05:04:31.774Z,16.52
2023-01-08T05:06:58.301Z,12.25
2023-01-08T05:09:24.805Z,19.30
2023-01-08T05:11:51.253Z,9.68
2023-01-08T05:14:17.728Z,8.75
2023-01-08T05:16:44.282Z,12.82
2023-01-08T05:19:10.768Z,15.98
2023-01-08T05:21:37.413Z,15.13
2023-01-08T05:24:04.075Z,12.05
2023-01-08T05:26:30.596Z,12.95
2023-01-08T05:28:57.666Z,14.18
2023-01-08T05:31:24.188Z,9.05
2023-01-08T05:33:51.601Z,12.10
2023-01-08T05:36:18.068Z,11.85
2023-01-08T05:38:44.661Z,9.50
2023-01-08T05:41:11.373Z,16.23
2023-01-08T05:43:37.850Z,18.83
2023-01-08T05:46:04.732Z,11.55
2023-01-08T05:48:32.425Z,18.65
2023-01-08T05:50:58.896Z,17.17
2023-01-08T05:53:25.397Z,17.13
2023-01-08T05:55:52.143Z,12.57
2023-01-08T05:58:21.466Z,10.75
2023-01-08T06:00:48.016Z,17.65
2023-01-08T06:03:14.559Z,12.20
2023-01-08T06:05:41.229Z,10.73
2023-01-08T06:08:08.730Z,10.70
2023-01-08T06:10:35.334Z,17.73
2023-01-08T06:13:01.900Z,12.70
2023-01-08T06:15:28.368Z,10.57
2023-01-08T06:17:54.832Z,13.73
2023-01-08T06:20:21.309Z,15.07
2023-01-08T06:22:47.828Z,21.17
2023-01-08T06:25:14.655Z,22.95
2023-01-08T06:27:41.133Z,18.77
2023-01-08T06:30:07.985Z,26.38
2023-01-08T06:32:36.384Z,14.65
2023-01-08T06:35:02.922Z,17.80
2023-01-08T06:37:29.428Z,14.68
2023-01-08T06:39:55.884Z,14.73
2023-01-08T06:42:22.469Z,14.95
2023-01-08T06:44:48.952Z,13.57
2023-01-08T06:47:15.407Z,11.27
2023-01-08T06:49:41.926Z,13.32
2023-01-08T06:52:08.440Z,19.02
2023-01-08T06:54:34.953Z,20.48
2023-01-08T06:57:01.412Z,18.88
2023-01-08T06:59:28.233Z,26.30
2023-01-08T07:01:54.795Z,14.52
2023-01-08T07:04:21.351Z,19.63
2023-01-08T07:06:48.045Z,16.75
2023-01-08T07:09:15.117Z,18.08
2023-01-08T07:11:42.002Z,17.30
2023-01-08T07:14:08.696Z,17.35
2023-01-08T07:16:35.627Z,16.08
2023-01-08T07:19:02.081Z,22.17
2023-01-08T07:21:28.638Z,15.27
2023-01-08T07:23:55.171Z,17.40
2023-01-08T07:26:21.664Z,17.05
2023-01-08T07:28:48.218Z,19.75
2023-01-08T07:31:14.782Z,20.13
2023-01-08T07:33:41.351Z,20.25
2023-01-08T07:36:08.128Z,18.15
2023-01-08T07:38:34.731Z,16.60
2023-01-08T07:41:01.213Z,30.50
2023-01-08T07:43:30.061Z,24.33
2023-01-08T07:45:57.063Z,24.50
2023-01-08T07:48:23.693Z,19.15
2023-01-08T07:50:50.241Z,17.33
2023-01-08T07:53:17.841Z,24.42
2023-01-08T07:55:44.626Z,20.52
2023-01-08T07:58:12.485Z,20.80
2023-01-08T08:00:39.023Z,26.63
2023-01-08T08:03:06.541Z,11.35
2023-01-08T08:05:33.799Z,21.83
2023-01-08T08:08:00.263Z,15.82
2023-01-08T08:10:26.745Z,19.73
2023-01-08T08:12:53.407Z,12.27
2023-01-08T08:15:19.870Z,19.02
2023-01-08T08:17:46.778Z,30.67
2023-01-08T08:20:13.334Z,21.13
2023-01-08T08:22:40.106Z,20.10
2023-01-08T08:25:06.867Z,19.42
2023-01-08T08:27:33.345Z,28.55
2023-01-08T08:29:59.823Z,14.45
2023-01-08T08:32:26.363Z,16.45
2023-01-08T08:34:53.031Z,31.20
2023-01-08T08:37:19.564Z,23.98
2023-01-08T08:39:46.119Z,28.10
2023-01-08T08:42:12.621Z,27.38
2023-01-08T08:44:40.716Z,28.88
2023-01-08T08:47:09.288Z,16.63
2023-01-08T08:49:36.617Z,22.15
2023-01-08T08:52:04.096Z,22.40
2023-01-08T08:54:30.571Z,21.63
2023-01-08T08:56:57.186Z,26.83
2023-01-08T08:59:23.754Z,21.67
2023-01-08T09:01:50.361Z,25.17
2023-01-08T09:04:16.983Z,25.40
2023-01-08T09:06:43.452Z,31.83
2023-01-08T09:09:09.928Z,23.90
2023-01-08T09:11:36.504Z,16.30
2023-01-08T09:14:03.114Z,29.05
2023-01-08T09:16:29.645Z,22.20
2023-01-08T09:18:56.204Z,26.65
2023-01-08T09:21:22.683Z,20.48
2023-01-08T09:23:49.498Z,26.85
2023-01-08T09:26:16.178Z,14.00
2023-01-08T09:28:42.659Z,20.73
2023-01-08T09:31:09.190Z,20.63
2023-01-08T09:33:35.717Z,19.20
2023-01-08T09:36:02.165Z,16.35
2023-01-08T09:38:30.009Z,16.25
2023-01-08T09:41:16.897Z,26.33
2023-01-08T09:43:45.555Z,18.77
2023-01-08T09:46:12.464Z,19.35
2023-01-08T09:48:39.859Z,20.60
2023-01-08T09:51:13.454Z,22.25
2023-01-08T09:53:40.318Z,18.50
2023-01-08T09:56:11.583Z,17.42
2023-01-08T09:58:39.569Z,19.55
2023-01-08T10:01:06.625Z,20.73
2023-01-08T10:03:40.927Z,18.75
2023-01-08T10:06:08.988Z,25.85
2023-01-08T10:08:35.463Z,17.95
2023-01-08T10:11:02.320Z,22.38
2023-01-08T10:13:28.802Z,18.77
2023-01-08T10:15:55.288Z,36.90
2023-01-08T10:18:23.439Z,23.95
2023-01-08T10:20:49.961Z,25.73
2023-01-08T10:23:17.538Z,27.25
2023-01-08T10:26:02.938Z,20.10
2023-01-08T10:28:30.781Z,20.02
2023-01-08T10:31:05.141Z,17.15
2023-01-08T10:33:51.877Z,24.40
2023-01-08T10:36:22.654Z,20.30
2023-01-08T10:38:56.658Z,25.15
2023-01-08T10:41:23.450Z,20.40
2023-01-08T10:43:49.886Z,22.63
2023-01-08T10:46:22.013Z,28.13
2023-01-08T10:48:51.814Z,23.85
2023-01-08T10:51:20.555Z,23.77
2023-01-08T10:53:47.731Z,29.52
2023-01-08T10:56:18.687Z,20.77
2023-01-08T10:58:45.152Z,27.05
2023-01-08T11:01:13.136Z,22.70
2023-01-08T11:03:40.598Z,23.60
2023-01-08T11:06:11.205Z,23.70
2023-01-08T11:08:37.667Z,25.52
2023-01-08T11:11:04.326Z,24.20
2023-01-08T11:13:30.819Z,25.13
2023-01-08T11:16:04.215Z,25.15
2023-01-08T11:18:30.779Z,31.13
2023-01-08T11:21:11.043Z,25.17
2023-01-08T11:23:37.531Z,24.23
2023-01-08T11:26:06.782Z,20.83
2023-01-08T11:28:39.121Z,21.73
2023-01-08T11:31:18.096Z,28.10
2023-01-08T11:33:45.363Z,30.38
2023-01-08T11:36:32.796Z,22.05
2023-01-08T11:39:00.314Z,17.63
2023-01-08T11:41:37.375Z,31.67
2023-01-08T11:44:03.837Z,21.65
2023-01-08T11:46:33.272Z,18.58
2023-01-08T11:49:08.680Z,19.15
2023-01-08T11:51:44.117Z,21.15
2023-01-08T11:54:19.520Z,18.15
2023-01-08T11:56:52.755Z,19.90
2023-01-08T11:59:19.252Z,25.08
2023-01-08T12:02:04.303Z,24.08
2023-01-08T12:04:39.750Z,16.55
2023-01-08T12:07:21.599Z,20.48
2023-01-08T12:09:58.225Z,21.30
2023-01-08T12:12:24.694Z,25.55
2023-01-08T12:14:51.124Z,23.05
2023-01-08T12:17:36.433Z,24.83
2023-01-08T12:20:14.905Z,35.00
2023-01-08T12:22:56.462Z,19.27
2023-01-08T12:25:28.755Z,21.80
2023-01-08T12:27:57.160Z,21.27
2023-01-08T12:30:36.654Z,28.63
2023-01-08T12:33:05.675Z,22.63
2023-01-08T12:35:34.284Z,29.35
2023-01-08T12:38:03.623Z,23.10
2023-01-08T12:40:33.097Z,25.05
2023-01-08T12:43:03.988Z,18.60
2023-01-08T12:45:43.794Z,27.33
2023-01-08T12:48:12.740Z,25.42
2023-01-08T12:50:39.188Z,25.85
2023-01-08T12:53:40.970Z,19.75
2023-01-08T12:56:07.957Z,19.58
2023-01-08T12:58:48.610Z,23.48
2023-01-08T13:01:18.059Z,26.23
2023-01-08T13:03:45.411Z,16.67
2023-01-08T13:06:13.650Z,15.38
2023-01-08T13:08:41.929Z,12.68
2023-01-08T13:11:08.902Z,11.20
2023-01-08T13:13:37.717Z,6.38
2023-01-08T13:16:17.370Z,8.57
2023-01-08T13:18:52.961Z,9.25
2023-01-08T13:21:27.398Z,8.07
2023-01-08T13:23:59.879Z,12.77
2023-01-08T13:26:34.253Z,8.88
2023-01-08T13:29:08.290Z,9.15
2023-01-08T13:31:43.783Z,8.15
2023-01-08T13:34:40.255Z,5.95
2023-01-08T13:37:11.380Z,5.85
2023-01-08T13:39:40.233Z,6.95
2023-01-08T13:42:13.951Z,6.85
2023-01-08T13:47:27.959Z,4.68
2023-01-08T13:49:55.379Z,10.15
2023-01-08T13:52:40.514Z,12.32
2023-01-08T13:55:13.100Z,11.80
2023-01-08T13:57:42.454Z,9.32
2023-01-08T14:00:17.423Z,12.43
2023-01-08T14:02:49.417Z,5.15
2023-01-08T14:05:34.766Z,10.98
2023-01-08T14:08:01.260Z,7.32
2023-01-08T14:10:30.940Z,13.55
2023-01-08T14:13:06.139Z,4.20
2023-01-08T14:15:33.756Z,10.57
2023-01-08T14:18:01.364Z,8.68
2023-01-08T14:20:30.550Z,8.18
2023-01-08T14:22:57.264Z,5.65
2023-01-08T14:25:24.253Z,8.45
2023-01-08T14:27:57.955Z,8.52
2023-01-08T14:30:24.822Z,8.27
2023-01-08T14:32:51.593Z,6.50
2023-01-08T14:35:19.479Z,4.90
2023-01-08T14:37:45.991Z,7.68
2023-01-08T14:40:16.319Z,7.28
2023-01-08T14:42:44.320Z,10.65
2023-01-08T14:45:20.547Z,6.28
2023-01-08T14:47:51.643Z,6.25
2023-01-08T14:50:26.040Z,9.60
2023-01-08T14:52:54.458Z,7.05
2023-01-08T14:55:21.656Z,10.27
2023-01-08T14:57:49.919Z,6.13
2023-01-08T15:00:18.134Z,12.27
2023-01-08T15:02:46.007Z,7.78
2023-01-08T15:05:17.031Z,10.13
2023-01-08T15:07:45.128Z,4.93
2023-01-08T15:10:32.301Z,9.90
2023-01-08T15:13:01.006Z,9.25
2023-01-08T15:15:27.541Z,9.27
2023-01-08T15:17:54.280Z,6.30
2023-01-08T15:20:22.123Z,3.70
2023-01-08T15:22:48.817Z,5.38
2023-01-08T15:25:24.835Z,3.13
2023-01-08T15:27:57.909Z,5.40
2023-01-08T15:30:26.186Z,6.15
2023-01-08T15:32:52.665Z,7.22
2023-01-08T15:35:19.206Z,4.97
2023-01-08T15:37:45.920Z,4.25
2023-01-08T15:40:12.931Z,2.42
2023-01-08T15:42:58.052Z,10.05
2023-01-08T15:45:28.634Z,3.28
2023-01-08T15:47:55.574Z,4.28
2023-01-08T15:50:22.323Z,6.55
2023-01-08T15:52:49.277Z,6.45
2023-01-08T15:55:16.951Z,5.30
2023-01-08T15:57:43.689Z,9.77
2023-01-08T16:00:14.219Z,3.10
2023-01-08T16:02:41.828Z,5.65
2023-01-08T16:05:08.812Z,4.53
2023-01-08T16:07:35.453Z,8.93
2023-01-08T16:10:02.091Z,5.28
2023-01-08T16:12:28.539Z,6.82
2023-01-08T16:14:55.008Z,6.10
2023-01-08T16:17:21.551Z,7.93
2023-01-08T16:19:47.997Z,6.57
2023-01-08T16:22:14.445Z,7.55
2023-01-08T16:24:40.960Z,9.00
2023-01-08T16:27:08.688Z,6.88
2023-01-08T16:29:35.158Z,11.63
2023-01-08T16:32:01.639Z,9.30
2023-01-08T16:34:28.140Z,9.15
2023-01-08T16:36:54.689Z,10.55
2023-01-08T16:39:22.073Z,5.95
2023-01-08T16:41:48.644Z,7.45
2023-01-08T16:44:19.316Z,6.78
2023-01-08T16:46:46.315Z,8.40
2023-01-08T16:49:12.909Z,9.23
2023-01-08T16:51:39.393Z,5.60
2023-01-08T16:54:05.948Z,6.05
2023-01-08T16:56:32.421Z,6.60
2023-01-08T16:58:59.026Z,11.93
2023-01-08T17:01:25.622Z,9.27
2023-01-08T17:03:52.299Z,9.27
2023-01-08T17:06:18.829Z,8.50
2023-01-08T17:08:45.373Z,7.40
2023-01-08T17:11:13.243Z,9.43
2023-01-08T17:13:39.894Z,10.25
2023-01-08T17:16:08.028Z,7.03
2023-01-08T17:18:34.857Z,4.97
2023-01-08T17:21:01.417Z,10.80
2023-01-08T17:23:28.913Z,11.65
2023-01-08T17:25:56.251Z,9.63
2023-01-08T17:28:25.232Z,6.32
2023-01-08T17:30:54.924Z,7.07
2023-01-08T17:33:21.443Z,8.98
2023-01-08T17:35:48.296Z,5.43
2023-01-08T17:38:14.781Z,7.38
2023-01-08T17:40:41.282Z,4.20
2023-01-08T17:43:08.112Z,5.15
2023-01-08T17:45:37.642Z,4.00
2023-01-08T17:48:04.319Z,4.88
2023-01-08T17:50:30.788Z,11.02
2023-01-08T17:52:57.775Z,7.65
2023-01-08T17:55:24.639Z,6.63
2023-01-08T17:57:51.172Z,6.72
2023-01-08T18:00:18.357Z,4.00
2023-01-08T18:02:45.019Z,3.67
2023-01-08T18:05:11.524Z,5.95
2023-01-08T18:07:38.103Z,4.68
2023-01-08T18:10:04.933Z,6.03
2023-01-08T18:12:32.530Z,4.05
2023-01-08T18:14:59.060Z,4.63
2023-01-08T18:17:25.509Z,3.13
2023-01-08T18:19:51.971Z,4.85
2023-01-08T18:22:18.476Z,5.43
2023-01-08T18:24:44.957Z,6.93
2023-01-08T18:27:11.421Z,8.05
2023-01-08T18:29:37.902Z,6.28
2023-01-08T18:32:04.544Z,9.05
2023-01-08T18:34:31.075Z,8.48
2023-01-08T18:36:57.657Z,11.95
2023-01-08T18:39:26.588Z,4.93
2023-01-08T18:42:11.953Z,14.10
2023-01-08T18:44:38.457Z,7.80
2023-01-08T18:47:04.909Z,7.65
2023-01-08T18:49:31.461Z,10.60
2023-01-08T18:51:57.938Z,6.32
2023-01-08T18:54:24.431Z,9.32
2023-01-08T18:56:51.294Z,10.93
2023-01-08T18:59:17.944Z,4.45
2023-01-08T19:01:44.830Z,6.43
2023-01-08T19:04:19.039Z,7.93
2023-01-08T19:06:45.927Z,5.57
2023-01-08T19:09:12.503Z,10.48
2023-01-08T19:11:38.960Z,4.10
2023-01-08T19:14:08.161Z,13.77
2023-01-08T19:16:34.726Z,7.80
2023-01-08T19:19:01.289Z,8.35
2023-01-08T19:21:27.774Z,9.77
2023-01-08T19:23:54.462Z,18.23
2023-01-08T19:26:21.009Z,63.58
2023-01-08T19:28:47.493Z,19.35
2023-01-08T19:31:15.864Z,29.00
2023-01-08T19:33:42.740Z,40.83
2023-01-08T19:36:18.136Z,16.08
2023-01-08T19:38:46.852Z,14.82
2023-01-08T19:41:45.733Z,28.45
2023-01-08T19:44:12.233Z,14.10
2023-01-08T19:46:38.768Z,9.55
2023-01-08T19:49:05.940Z,14.80
2023-01-08T19:51:33.409Z,7.43
2023-01-08T19:54:00.992Z,12.93
2023-01-08T19:56:27.901Z,8.35
2023-01-08T19:58:55.236Z,12.52
2023-01-08T20:01:23.582Z,25.27
2023-01-08T20:03:50.370Z,17.02
2023-01-08T20:06:19.919Z,8.10
2023-01-08T20:08:46.934Z,12.52
2023-01-08T20:11:14.517Z,19.88
2023-01-08T20:13:41.171Z,7.30
2023-01-08T20:16:08.670Z,14.05
2023-01-08T20:18:35.641Z,13.90
2023-01-08T20:21:03.177Z,14.38
2023-01-08T20:23:29.706Z,11.85
2023-01-08T20:25:56.303Z,10.02
2023-01-08T20:28:22.798Z,16.13
2023-01-08T20:30:49.292Z,12.98
2023-01-08T20:33:17.721Z,9.55
2023-01-08T20:35:44.459Z,9.82
2023-01-08T20:38:10.928Z,11.40
2023-01-08T20:40:37.838Z,9.32
2023-01-08T20:43:04.390Z,14.05
2023-01-08T20:45:31.150Z,9.30
2023-01-08T20:47:57.617Z,12.32
2023-01-08T20:50:24.136Z,22.85
2023-01-08T20:52:50.620Z,14.27
2023-01-08T20:55:18.622Z,25.27
2023-01-08T20:57:45.302Z,22.85
2023-01-08T21:00:12.089Z,19.10
2023-01-08T21:02:38.539Z,23.38
2023-01-08T21:05:05.275Z,19.30
2023-01-08T21:07:31.724Z,17.60
2023-01-08T21:09:58.190Z,16.60
2023-01-08T21:12:24.757Z,17.88
2023-01-08T21:14:51.267Z,18.88
2023-01-08T21:17:17.725Z,16.05
2023-01-08T21:19:45.286Z,14.85
2023-01-08T21:22:11.748Z,10.15
2023-01-08T21:24:38.288Z,13.35
2023-01-08T21:27:04.861Z,10.65
2023-01-08T21:29:31.410Z,8.75
2023-01-08T21:31:57.908Z,9.10
2023-01-08T21:34:24.453Z,6.60
2023-01-08T21:36:50.919Z,10.45
2023-01-08T21:39:17.518Z,10.23
2023-01-08T21:42:02.531Z,12.30
2023-01-08T21:44:47.661Z,7.80
2023-01-08T21:47:16.673Z,8.00
2023-01-08T21:49:43.689Z,11.63
2023-01-08T21:52:28.660Z,25.98
2023-01-08T21:54:56.248Z,12.98
2023-01-08T21:57:22.762Z,14.63
2023-01-08T21:59:50.247Z,17.30
2023-01-08T22:02:17.827Z,13.60
2023-01-08T22:04:44.971Z,12.05
2023-01-08T22:07:11.535Z,7.05
2023-01-08T22:09:38.366Z,11.20
2023-01-08T22:12:05.104Z,9.07
2023-01-08T22:14:31.552Z,6.25
2023-01-08T22:16:58.026Z,6.18
2023-01-08T22:19:25.044Z,15.57
2023-01-08T22:21:51.563Z,12.98
2023-01-08T22:24:18.047Z,13.52
2023-01-08T22:26:44.543Z,7.07
2023-01-08T22:29:11.000Z,9.15
2023-01-08T22:31:37.579Z,9.75
2023-01-08T22:34:04.100Z,9.13
2023-01-08T22:36:30.589Z,6.95
2023-01-08T22:38:57.240Z,6.10
2023-01-08T22:41:24.576Z,9.70
2023-01-08T22:43:55.946Z,7.88
2023-01-08T22:46:22.697Z,13.02
2023-01-08T22:48:49.271Z,11.55
2023-01-08T22:51:15.752Z,10.85
2023-01-08T22:53:42.402Z,9.75
2023-01-08T22:56:12.528Z,6.38
2023-01-08T22:58:42.490Z,5.15
2023-01-08T23:01:13.035Z,8.57
2023-01-08T23:03:43.088Z,7.82
2023-01-08T23:06:10.384Z,4.47
2023-01-08T23:08:36.920Z,8.48
2023-01-08T23:11:03.875Z,7.30
2023-01-08T23:13:30.379Z,5.43
2023-01-08T23:15:56.861Z,4.53
2023-01-08T23:18:23.350Z,6.43
2023-01-08T23:20:49.810Z,6.00
2023-01-08T23:23:16.874Z,4.75
2023-01-08T23:25:43.330Z,6.35
2023-01-08T23:28:09.805Z,6.50
2023-01-08T23:30:36.382Z,4.22
2023-01-08T23:33:02.874Z,3.00
2023-01-08T23:35:29.339Z,4.85
2023-01-08T23:37:55.929Z,7.25
2023-01-08T23:40:22.515Z,7.97
2023-01-08T23:42:49.027Z,5.28
2023-01-08T23:45:15.596Z,3.58
2023-01-08T23:47:42.096Z,4.93
2023-01-08T23:50:09.782Z,4.75
2023-01-08T23:52:36.361Z,4.63
2023-01-08T23:55:02.914Z,8.52
2023-01-08T23:57:29.364Z,8.43
2023-01-08T23:59:55.911Z,7.32
